Time;durP1;ratioP1;P1;durP2;ratioP2;P2;SDS_P1;SDS_P2;PMS_P1;PMS_P2;Temp;Humidity;BMP_temperature;BMP_pressure;BME280_temperature;BME280_humidity;BME280_pressure;Samples;Min_cycle;Max_cycle;Signal;HPM_P1;HPM_P2
2024/04/17 00:01:26;;;;;;;17.60;5.72;;;;;;;19.25;100.00;98467.91;5426504;26;20043;-70
2024/04/17 00:03:51;;;;;;;14.15;5.97;;;;;;;19.32;100.00;98467.22;5422096;26;20039;-73
2024/04/17 00:06:17;;;;;;;12.18;5.45;;;;;;;19.22;100.00;98457.84;5421193;26;20011;-71
2024/04/17 00:08:42;;;;;;;15.82;5.75;;;;;;;19.24;100.00;98437.91;5422943;26;20030;-70
2024/04/17 00:11:07;;;;;;;13.45;5.90;;;;;;;19.54;100.00;98517.75;5423955;26;20011;-70
2024/04/17 00:13:33;;;;;;;12.25;5.07;;;;;;;19.62;100.00;98541.09;5425381;26;20022;-70
2024/04/17 00:15:59;;;;;;;13.20;5.63;;;;;;;19.60;100.00;98524.94;5428220;26;20007;-74
2024/04/17 00:18:25;;;;;;;12.20;5.60;;;;;;;19.48;100.00;98519.09;5424463;26;19999;-70
2024/04/17 00:20:50;;;;;;;13.00;5.43;;;;;;;19.56;100.00;98526.97;5427320;26;20000;-70
2024/04/17 00:23:16;;;;;;;12.88;5.80;;;;;;;19.09;100.00;98481.31;5423422;26;20052;-70
2024/04/17 00:25:41;;;;;;;10.23;5.82;;;;;;;18.57;100.00;98454.06;5423105;26;20039;-70
2024/04/17 00:28:07;;;;;;;11.50;5.93;;;;;;;18.29;100.00;98308.06;5416426;26;20011;-70
2024/04/17 00:30:32;;;;;;;10.60;5.75;;;;;;;18.84;100.00;98322.09;5410841;26;20462;-70
2024/04/17 00:32:58;;;;;;;14.48;5.90;;;;;;;19.33;100.00;98383.81;5419363;26;20003;-70
2024/04/17 00:35:23;;;;;;;11.35;6.00;;;;;;;19.18;100.00;98389.50;5428903;26;19999;-72
2024/04/17 00:37:49;;;;;;;13.15;6.07;;;;;;;18.91;100.00;98380.69;5417828;26;20466;-70
2024/04/17 00:40:14;;;;;;;11.18;5.82;;;;;;;19.08;100.00;98357.75;5425864;26;20009;-70
2024/04/17 00:42:39;;;;;;;11.73;5.80;;;;;;;19.01;100.00;98335.13;5425472;26;20034;-69
2024/04/17 00:45:05;;;;;;;12.73;6.13;;;;;;;18.61;100.00;98275.22;5423283;26;20067;-69
2024/04/17 00:47:31;;;;;;;14.00;5.75;;;;;;;18.47;100.00;98251.66;5419594;26;20023;-70
2024/04/17 00:49:56;;;;;;;11.70;6.07;;;;;;;19.08;100.00;98380.94;5423101;26;20462;-69
2024/04/17 00:52:23;;;;;;;15.38;6.20;;;;;;;18.63;100.00;98336.88;5424780;26;20441;-70
2024/04/17 00:54:48;;;;;;;14.13;6.25;;;;;;;18.73;100.00;98340.28;5427002;26;20031;-71
2024/04/17 00:57:14;;;;;;;14.32;6.15;;;;;;;18.62;100.00;98333.47;5427572;26;19999;-70
2024/04/17 00:59:42;;;;;;;11.95;6.18;;;;;;;18.57;100.00;98302.19;5430317;26;20011;-70
2024/04/17 01:02:07;;;;;;;15.23;6.97;;;;;;;18.13;100.00;98205.69;5426702;26;20435;-73
2024/04/17 01:04:32;;;;;;;16.67;7.18;;;;;;;18.30;100.00;98186.22;5425409;26;20023;-70
2024/04/17 01:06:59;;;;;;;14.98;6.90;;;;;;;17.57;100.00;98148.06;5422823;26;19996;-70
2024/04/17 01:09:25;;;;;;;18.40;6.50;;;;;;;18.14;100.00;98209.09;5429414;26;20025;-70
2024/04/17 01:11:51;;;;;;;14.13;6.82;;;;;;;17.73;100.00;98138.09;5426131;26;19999;-70
2024/04/17 01:14:16;;;;;;;10.95;6.10;;;;;;;17.98;100.00;98159.91;5433668;26;20088;-70
2024/04/17 01:16:42;;;;;;;12.75;6.55;;;;;;;17.91;100.00;98084.25;5426234;26;20019;-70
2024/04/17 01:19:09;;;;;;;15.30;6.07;;;;;;;18.24;100.00;98178.22;5431443;26;20010;-70
2024/04/17 01:21:35;;;;;;;11.30;6.05;;;;;;;18.56;100.00;98158.97;5435849;26;20003;-70
2024/04/17 01:24:00;;;;;;;13.60;6.03;;;;;;;18.06;100.00;98108.63;5422745;26;20006;-70
2024/04/17 01:26:26;;;;;;;17.40;6.95;;;;;;;18.56;100.00;98225.91;5420682;26;20036;-70
2024/04/17 01:28:51;;;;;;;10.23;5.55;;;;;;;18.76;100.00;98235.25;5431497;26;20330;-70
2024/04/17 01:31:17;;;;;;;9.95;5.28;;;;;;;18.85;100.00;98241.34;5416479;26;20035;-70
2024/04/17 01:33:42;;;;;;;13.15;6.20;;;;;;;18.13;100.00;98186.84;5425835;26;20011;-70
2024/04/17 01:36:08;;;;;;;12.55;6.18;;;;;;;18.22;100.00;98204.09;5428016;26;20426;-71
2024/04/17 01:38:33;;;;;;;10.73;5.63;;;;;;;18.27;100.00;98212.19;5416900;26;19996;-70
2024/04/17 01:41:00;;;;;;;13.55;6.05;;;;;;;18.45;100.00;98256.13;5415038;26;20014;-70
2024/04/17 01:43:26;;;;;;;14.52;6.22;;;;;;;18.29;100.00;98205.16;5422565;26;20346;-69
2024/04/17 01:45:52;;;;;;;12.30;5.57;;;;;;;17.80;100.00;98202.66;5423463;26;20470;-74
2024/04/17 01:48:18;;;;;;;11.32;5.38;;;;;;;18.01;100.00;98204.19;5425249;26;20000;-70
2024/04/17 01:50:43;;;;;;;12.02;5.88;;;;;;;18.39;100.00;98278.03;5418561;26;19995;-70
2024/04/17 01:53:09;;;;;;;12.25;6.47;;;;;;;17.41;100.00;98180.31;5433574;26;20002;-69
2024/04/17 01:55:34;;;;;;;14.35;6.25;;;;;;;18.00;100.00;98230.03;5424739;26;20027;-69
2024/04/17 01:58:06;;;;;;;13.30;6.43;;;;;;;17.42;100.00;98120.28;5426825;26;19999;-70
2024/04/17 02:00:34;;;;;;;14.18;6.25;;;;;;;17.49;100.00;98090.59;5417645;26;20004;-69
2024/04/17 02:03:00;;;;;;;12.88;6.50;;;;;;;18.03;100.00;98191.19;5422007;26;20030;-72
2024/04/17 02:05:25;;;;;;;15.75;6.13;;;;;;;17.68;100.00;98094.00;5427226;26;20435;-70
2024/04/17 02:07:52;;;;;;;13.35;5.25;;;;;;;17.73;100.00;98137.28;5426398;26;20003;-74
2024/04/17 02:10:17;;;;;;;12.50;5.68;;;;;;;18.02;100.00;98138.13;5426228;26;20499;-69
2024/04/17 02:12:43;;;;;;;13.75;5.50;;;;;;;18.53;100.00;98228.75;5429022;26;20003;-71
2024/04/17 02:15:08;;;;;;;15.60;4.95;;;;;;;18.35;100.00;98235.50;5427235;26;20358;-70
2024/04/17 02:17:33;;;;;;;13.50;5.63;;;;;;;18.54;100.00;98248.38;5415232;26;20032;-70
2024/04/17 02:19:59;;;;;;;14.00;5.80;;;;;;;18.47;100.00;98236.19;5426517;26;20073;-71
2024/04/17 02:22:24;;;;;;;15.27;6.38;;;;;;;17.96;100.00;98161.81;5425742;26;20011;-69
2024/04/17 02:24:50;;;;;;;15.57;6.30;;;;;;;18.31;100.00;98230.75;5422525;26;19995;-70
2024/04/17 02:27:15;;;;;;;13.48;5.72;;;;;;;17.88;100.00;98153.97;5425253;26;20006;-70
2024/04/17 02:29:41;;;;;;;16.10;6.00;;;;;;;17.69;100.00;98139.31;5423985;26;20185;-71
2024/04/17 02:32:07;;;;;;;16.40;6.18;;;;;;;18.15;100.00;98175.50;5416462;26;20003;-70
2024/04/17 02:34:33;;;;;;;13.30;6.10;;;;;;;17.95;100.00;98171.28;5422752;26;20028;-70
2024/04/17 02:36:58;;;;;;;13.45;6.30;;;;;;;17.96;100.00;98154.09;5418037;26;20076;-70
2024/04/17 02:39:23;;;;;;;16.08;5.57;;;;;;;17.86;100.00;98107.00;5423046;26;20072;-70
2024/04/17 02:41:49;;;;;;;14.00;5.57;;;;;;;17.39;100.00;98041.69;5428293;26;20010;-72
2024/04/17 02:44:14;;;;;;;14.00;5.63;;;;;;;17.85;100.00;98101.03;5428757;26;20071;-70
2024/04/17 02:46:40;;;;;;;14.43;5.80;;;;;;;17.61;100.00;98122.94;5417903;26;20007;-70
2024/04/17 02:49:05;;;;;;;13.15;5.40;;;;;;;17.32;100.00;98049.16;5418481;26;20011;-70
2024/04/17 02:51:31;;;;;;;11.30;5.65;;;;;;;17.43;100.00;98062.81;5421210;26;20435;-70
2024/04/17 02:53:56;;;;;;;15.45;5.53;;;;;;;17.32;100.00;98097.94;5422223;26;20011;-70
2024/04/17 02:56:21;;;;;;;10.57;5.50;;;;;;;16.71;100.00;97934.69;5427094;26;20032;-70
2024/04/17 02:58:47;;;;;;;13.63;5.85;;;;;;;17.28;100.00;97898.81;5433900;26;20431;-72
2024/04/17 03:01:14;;;;;;;13.70;6.22;;;;;;;16.80;100.00;98010.91;5424062;26;20018;-68
2024/04/17 03:03:39;;;;;;;15.05;5.82;;;;;;;17.20;100.00;97985.19;5425473;26;20050;-69
2024/04/17 03:06:05;;;;;;;14.10;6.00;;;;;;;17.22;100.00;98101.44;5409514;26;20003;-68
2024/04/17 03:08:31;;;;;;;15.80;6.20;;;;;;;16.49;100.00;97916.94;5413669;26;19999;-68
2024/04/17 03:11:01;;;;;;;15.88;6.05;;;;;;;16.76;100.00;97955.63;5416220;26;20010;-72
2024/04/17 03:13:27;;;;;;;15.32;6.13;;;;;;;17.00;100.00;98001.50;5416388;26;20018;-71
2024/04/17 03:15:52;;;;;;;15.95;6.00;;;;;;;17.21;100.00;97985.03;5421402;26;20003;-70
2024/04/17 03:18:19;;;;;;;13.45;5.50;;;;;;;17.49;100.00;98040.00;5415498;26;20524;-70
2024/04/17 03:20:44;;;;;;;13.15;6.40;;;;;;;16.93;100.00;98044.88;5417764;26;20011;-70
2024/04/17 03:23:10;;;;;;;15.60;6.50;;;;;;;17.01;100.00;97980.84;5414075;26;20323;-69
2024/04/17 03:25:35;;;;;;;13.35;6.57;;;;;;;16.77;100.00;97941.88;5417713;26;20011;-70
2024/04/17 03:28:01;;;;;;;13.18;6.40;;;;;;;17.49;100.00;98037.41;5418339;26;20330;-70
2024/04/17 03:30:26;;;;;;;18.70;6.75;;;;;;;17.52;100.00;98037.16;5421180;26;20060;-69
2024/04/17 03:32:52;;;;;;;15.77;6.10;;;;;;;17.34;100.00;98049.81;5417327;26;20000;-69
2024/04/17 03:35:18;;;;;;;13.75;6.30;;;;;;;16.53;100.00;97891.84;5414715;26;19999;-70
2024/04/17 03:37:44;;;;;;;16.27;6.22;;;;;;;17.05;100.00;97959.09;5417314;26;19994;-68
2024/04/17 03:40:10;;;;;;;15.65;5.95;;;;;;;17.67;100.00;98042.75;5419455;26;20418;-69
2024/04/17 03:42:35;;;;;;;18.73;7.40;;;;;;;16.89;100.00;97974.19;5417137;26;20003;-69
2024/04/17 03:45:00;;;;;;;16.52;6.80;;;;;;;17.37;100.00;98065.91;5414395;26;20006;-70
2024/04/17 03:47:26;;;;;;;15.48;6.80;;;;;;;17.39;100.00;98020.38;5411187;26;20006;-69
2024/04/17 03:49:54;;;;;;;13.32;6.43;;;;;;;17.37;100.00;98059.03;5419097;26;20021;-69
2024/04/17 03:52:19;;;;;;;20.45;6.68;;;;;;;17.47;100.00;98023.06;5415485;26;20016;-71
2024/04/17 03:54:45;;;;;;;14.32;6.35;;;;;;;17.21;100.00;98035.63;5419283;26;20023;-71
2024/04/17 03:57:10;;;;;;;14.43;6.30;;;;;;;16.73;100.00;97975.63;5420879;26;20003;-71
2024/04/17 03:59:35;;;;;;;18.25;6.63;;;;;;;16.58;100.00;97938.44;5416215;26;19999;-70
2024/04/17 04:02:05;;;;;;;16.17;6.30;;;;;;;17.11;100.00;98052.75;5416764;26;20003;-69
2024/04/17 04:04:31;;;;;;;18.77;6.05;;;;;;;17.31;100.00;98000.50;5414164;26;20076;-68
2024/04/17 04:06:57;;;;;;;15.80;7.05;;;;;;;17.27;100.00;98009.41;5419765;26;20015;-69
2024/04/17 04:09:23;;;;;;;15.25;6.45;;;;;;;17.23;100.00;98000.34;5413766;26;20446;-68
2024/04/17 04:11:49;;;;;;;16.95;6.70;;;;;;;17.24;100.00;98033.59;5414803;26;20014;-69
2024/04/17 04:14:15;;;;;;;15.80;6.85;;;;;;;17.36;100.00;98029.13;5412314;26;20000;-69
2024/04/17 04:16:40;;;;;;;16.00;6.90;;;;;;;16.81;100.00;97942.41;5422670;26;20347;-68
2024/04/17 04:19:05;;;;;;;15.45;7.22;;;;;;;17.06;100.00;98053.13;5416161;26;20014;-70
2024/04/17 04:21:31;;;;;;;16.70;6.93;;;;;;;17.33;100.00;98004.53;5417691;26;20457;-71
2024/04/17 04:23:56;;;;;;;16.40;7.15;;;;;;;17.26;100.00;98059.13;5415548;26;19999;-70
2024/04/17 04:26:22;;;;;;;13.90;6.70;;;;;;;16.54;100.00;97981.50;5414242;26;20015;-69
2024/04/17 04:28:47;;;;;;;13.98;7.20;;;;;;;16.47;100.00;97917.06;5415474;26;20008;-70
2024/04/17 04:31:13;;;;;;;15.48;6.55;;;;;;;17.14;100.00;97971.13;5423230;26;20076;-70
2024/04/17 04:33:39;;;;;;;14.55;6.70;;;;;;;16.97;100.00;98004.34;5414861;26;20000;-70
2024/04/17 04:36:05;;;;;;;19.38;7.47;;;;;;;17.13;100.00;98028.53;5423288;26;20380;-69
2024/04/17 04:38:32;;;;;;;17.52;7.70;;;;;;;17.43;100.00;98080.81;5428440;26;20008;-70
2024/04/17 04:40:58;;;;;;;15.38;7.43;;;;;;;17.38;100.00;98062.38;5416920;26;20007;-70
2024/04/17 04:43:24;;;;;;;15.65;7.25;;;;;;;17.28;100.00;97998.16;5421591;26;20441;-71
2024/04/17 04:45:49;;;;;;;19.83;7.35;;;;;;;17.66;100.00;98062.47;5431006;26;19999;-70
2024/04/17 04:48:15;;;;;;;22.27;7.63;;;;;;;17.05;100.00;98081.50;5421644;26;20000;-73
2024/04/17 04:50:40;;;;;;;17.38;7.07;;;;;;;17.27;100.00;98029.94;5425853;26;20070;-70
2024/04/17 04:53:06;;;;;;;18.48;7.20;;;;;;;17.06;100.00;97942.72;5435821;26;20008;-71
2024/04/17 04:55:32;;;;;;;18.23;7.28;;;;;;;17.54;100.00;98034.47;5426419;26;20010;-69
2024/04/17 04:57:57;;;;;;;15.45;7.57;;;;;;;17.20;100.00;98013.44;5425113;26;19999;-70
2024/04/17 05:00:23;;;;;;;20.05;7.80;;;;;;;17.62;100.00;98006.34;5435060;26;20326;-71
2024/04/17 05:02:48;;;;;;;19.92;7.68;;;;;;;16.87;100.00;97944.47;5431059;26;20023;-70
2024/04/17 05:05:13;;;;;;;18.73;7.60;;;;;;;17.57;100.00;98013.66;5434197;26;20392;-70
2024/04/17 05:07:39;;;;;;;18.13;6.50;;;;;;;17.21;100.00;98021.00;5427487;26;20018;-69
2024/04/17 05:10:04;;;;;;;16.85;6.82;;;;;;;16.83;100.00;98014.97;5434650;26;20490;-70
2024/04/17 05:12:30;;;;;;;17.20;7.50;;;;;;;16.97;100.00;97994.88;5437352;26;20456;-70
2024/04/17 05:14:55;;;;;;;19.05;7.20;;;;;;;16.69;100.00;97830.56;5440831;26;20067;-70
2024/04/17 05:17:21;;;;;;;20.45;6.55;;;;;;;17.40;100.00;97876.38;5440084;26;20044;-69
2024/04/17 05:19:46;;;;;;;14.10;6.32;;;;;;;17.78;100.00;97872.94;5436196;26;20330;-70
2024/04/17 05:22:11;;;;;;;20.90;7.03;;;;;;;16.94;100.00;97850.56;5433358;26;20067;-70
2024/04/17 05:24:37;;;;;;;19.95;7.43;;;;;;;17.52;100.00;97884.75;5423986;26;20314;-69
2024/04/17 05:27:02;;;;;;;17.00;7.15;;;;;;;17.61;100.00;97901.94;5424994;26;20038;-69
2024/04/17 05:29:28;;;;;;;16.13;6.90;;;;;;;17.15;100.00;97826.38;5427779;26;20032;-69
2024/04/17 05:31:53;;;;;;;16.08;7.55;;;;;;;17.27;100.00;97817.56;5436761;26;20009;-70
2024/04/17 05:34:19;;;;;;;19.08;6.45;;;;;;;18.01;100.00;97840.78;5430184;26;19999;-69
2024/04/17 05:36:44;;;;;;;14.82;6.63;;;;;;;18.00;100.00;97913.75;5428601;26;20488;-69
2024/04/17 05:39:10;;;;;;;13.48;6.18;;;;;;;17.63;100.00;97852.00;5435502;26;19996;-70
2024/04/17 05:41:35;;;;;;;18.35;6.45;;;;;;;18.65;100.00;97946.28;5420165;26;20000;-68
2024/04/17 05:44:01;;;;;;;18.77;6.70;;;;;;;18.49;100.00;97998.38;5425849;26;20007;-71
2024/04/17 05:46:27;;;;;;;14.00;5.82;;;;;;;17.94;100.00;97925.41;5426421;26;20429;-69
2024/04/17 05:48:53;;;;;;;16.00;5.53;;;;;;;18.39;100.00;98068.78;5432128;26;20002;-70
2024/04/17 05:51:19;;;;;;;26.00;5.93;;;;;;;18.28;100.00;97974.56;5418524;26;20000;-69
2024/04/17 05:53:44;;;;;;;17.02;5.28;;;;;;;18.47;100.00;97964.22;5440225;26;20011;-72
2024/04/17 05:56:10;;;;;;;13.57;5.72;;;;;;;18.81;100.00;97982.50;5433299;26;20006;-69
2024/04/17 05:58:35;;;;;;;16.05;5.60;;;;;;;19.56;100.00;98054.34;5426960;26;20452;-70
2024/04/17 06:01:00;;;;;;;14.95;5.70;;;;;;;19.51;100.00;98059.94;5438420;26;20329;-69
2024/04/17 06:03:26;;;;;;;16.65;5.68;;;;;;;19.35;100.00;98040.94;5420120;26;20326;-71
2024/04/17 06:05:51;;;;;;;17.17;5.75;;;;;;;19.53;100.00;98075.28;5430650;26;20014;-69
2024/04/17 06:08:17;;;;;;;16.27;5.57;;;;;;;20.12;100.00;98173.56;5434397;26;20003;-68
2024/04/17 06:10:42;;;;;;;16.75;5.80;;;;;;;20.15;100.00;98183.56;5431215;26;20039;-69
2024/04/17 06:13:08;;;;;;;14.18;5.78;;;;;;;19.42;100.00;98125.25;5427275;26;20010;-69
2024/04/17 06:15:36;;;;;;;17.48;5.22;;;;;;;19.86;100.00;98199.25;5437679;26;20071;-69
2024/04/17 06:18:05;;;;;;;17.23;5.95;;;;;;;19.63;100.00;98184.31;5437472;26;20442;-69
2024/04/17 06:20:30;;;;;;;15.35;6.10;;;;;;;19.56;100.00;98165.19;5431033;26;20010;-69
2024/04/17 06:22:56;;;;;;;15.70;6.03;;;;;;;20.28;100.00;98153.06;5434693;26;20093;-70
2024/04/17 06:25:21;;;;;;;18.85;7.15;;;;;;;19.64;100.00;98087.94;5426833;26;19999;-69
2024/04/17 06:27:47;;;;;;;20.67;6.18;;;;;;;19.97;100.00;98079.53;5432929;26;19999;-69
2024/04/17 06:30:12;;;;;;;17.40;6.07;;;;;;;20.30;100.00;98145.97;5428055;26;19999;-69
2024/04/17 06:32:38;;;;;;;19.02;6.47;;;;;;;19.98;100.00;98039.91;5429947;26;20003;-70
2024/04/17 06:35:04;;;;;;;19.05;6.70;;;;;;;21.01;100.00;98107.91;5433964;26;20407;-69
2024/04/17 06:37:29;;;;;;;25.23;6.70;;;;;;;20.91;100.00;98127.84;5432482;26;20357;-70
2024/04/17 06:39:54;;;;;;;19.67;6.60;;;;;;;20.69;100.00;98038.78;5431973;26;20003;-71
2024/04/17 06:42:20;;;;;;;22.48;8.57;;;;;;;21.03;100.00;98133.59;5421954;26;20460;-70
2024/04/17 06:44:45;;;;;;;21.02;6.75;;;;;;;21.08;100.00;98083.06;5434380;26;20007;-69
2024/04/17 06:47:11;;;;;;;19.13;7.22;;;;;;;21.90;100.00;98145.25;5429129;26;20003;-69
2024/04/17 06:49:36;;;;;;;19.50;6.80;;;;;;;22.27;100.00;98161.16;5429415;26;20326;-69
2024/04/17 06:52:02;;;;;;;22.67;7.18;;;;;;;22.37;100.00;98174.75;5441821;26;20047;-70
2024/04/17 06:54:27;;;;;;;18.70;6.07;;;;;;;21.92;100.00;98297.78;5422350;26;20080;-70
2024/04/17 06:56:53;;;;;;;20.38;6.00;;;;;;;21.83;100.00;98278.81;5432597;26;20000;-72
2024/04/17 06:59:19;;;;;;;17.85;6.30;;;;;;;21.90;100.00;98220.31;5427386;26;20403;-70
2024/04/17 07:01:44;;;;;;;22.02;5.70;;;;;;;22.46;100.00;98349.13;5436012;26;20366;-69
2024/04/17 07:04:09;;;;;;;23.17;5.93;;;;;;;21.99;100.00;98329.84;5433850;26;20083;-70
2024/04/17 07:06:35;;;;;;;19.48;5.28;;;;;;;21.87;100.00;98355.16;5430864;26;20014;-69
2024/04/17 07:09:01;;;;;;;20.58;5.70;;;;;;;22.91;100.00;98392.81;5433183;26;20017;-71
2024/04/17 07:11:27;;;;;;;18.55;6.00;;;;;;;21.99;100.00;98392.78;5421303;26;22286;-70
2024/04/17 07:13:52;;;;;;;16.60;5.50;;;;;;;22.69;100.00;98521.22;5424359;26;20014;-69
2024/04/17 07:16:18;;;;;;;24.98;5.63;;;;;;;22.56;100.00;98561.44;5425090;26;20031;-70
2024/04/17 07:18:45;;;;;;;18.25;5.03;;;;;;;22.49;100.00;98519.78;5422984;26;20003;-69
2024/04/17 07:21:10;;;;;;;20.42;5.85;;;;;;;22.56;100.00;98553.66;5423367;26;19999;-69
2024/04/17 07:23:38;;;;;;;21.80;5.50;;;;;;;22.98;100.00;98568.31;5430637;26;20433;-69
2024/04/17 07:26:04;;;;;;;16.77;5.50;;;;;;;23.48;100.00;98615.06;5421847;26;20018;-70
2024/04/17 07:28:29;;;;;;;18.67;5.40;;;;;;;23.57;100.00;98730.88;5416137;26;20003;-69
2024/04/17 07:30:55;;;;;;;22.88;5.15;;;;;;;23.72;100.00;98723.31;5426058;26;20076;-70
2024/04/17 07:33:20;;;;;;;16.27;4.93;;;;;;;23.81;100.00;98717.22;5429765;26;20012;-69
2024/04/17 07:35:46;;;;;;;15.70;5.13;;;;;;;23.48;100.00;98682.53;5430726;26;20367;-70
2024/04/17 07:38:11;;;;;;;14.98;4.78;;;;;;;23.13;100.00;98718.97;5437493;26;20330;-72
2024/04/17 07:40:37;;;;;;;19.80;5.45;;;;;;;23.66;100.00;98729.97;5421916;26;20040;-69
2024/04/17 07:43:02;;;;;;;22.50;5.72;;;;;;;24.02;100.00;98847.44;5422081;26;20400;-69
2024/04/17 07:45:28;;;;;;;11.20;4.80;;;;;;;24.20;100.00;98800.63;5430085;26;20003;-73
2024/04/17 07:47:53;;;;;;;20.55;5.32;;;;;;;23.61;100.00;98853.41;5426893;26;20031;-70
2024/04/17 07:50:19;;;;;;;17.85;5.13;;;;;;;24.00;100.00;98888.34;5419823;26;20053;-69
2024/04/17 07:52:44;;;;;;;18.05;4.95;;;;;;;23.80;100.00;98843.63;5429355;26;20022;-71
2024/04/17 07:55:10;;;;;;;15.20;4.45;;;;;;;23.81;100.00;98821.06;5435942;26;20015;-71
2024/04/17 07:57:35;;;;;;;14.77;5.07;;;;;;;23.41;100.00;98902.09;5430907;26;20015;-70
2024/04/17 08:00:01;;;;;;;24.48;4.50;;;;;;;23.49;100.00;98829.50;5436326;26;20003;-70
2024/04/17 08:02:27;;;;;;;14.27;4.25;;;;;;;23.79;100.00;98934.66;5426290;26;20011;-70
2024/04/17 08:04:52;;;;;;;15.05;4.95;;;;;;;24.23;100.00;98860.88;5434696;26;20014;-74
2024/04/17 08:07:18;;;;;;;15.43;4.78;;;;;;;24.16;100.00;98939.59;5430613;26;20014;-70
2024/04/17 08:09:43;;;;;;;45.00;5.95;;;;;;;23.53;100.00;98887.88;5428488;26;20015;-69
2024/04/17 08:12:08;;;;;;;49.75;5.97;;;;;;;23.82;100.00;98958.53;5426230;26;20022;-69
2024/04/17 08:14:34;;;;;;;29.45;4.70;;;;;;;24.11;100.00;98875.13;5429220;26;19999;-70
2024/04/17 08:16:59;;;;;;;19.15;4.47;;;;;;;24.57;100.00;98874.66;5432441;26;20072;-71
2024/04/17 08:19:25;;;;;;;42.67;5.70;;;;;;;24.73;100.00;98853.91;5425659;26;19999;-69
2024/04/17 08:21:50;;;;;;;52.15;6.30;;;;;;;24.22;100.00;98906.03;5427679;26;20075;-71
2024/04/17 08:24:16;;;;;;;26.83;4.85;;;;;;;24.79;100.00;98915.69;5419156;26;20021;-72
2024/04/17 08:26:41;;;;;;;24.85;5.28;;;;;;;24.78;100.00;98941.88;5427525;26;20036;-69
2024/04/17 08:29:07;;;;;;;28.30;5.47;;;;;;;23.92;100.00;98943.66;5433938;26;20010;-69
2024/04/17 08:31:33;;;;;;;18.42;5.32;;;;;;;23.91;100.00;98866.72;5425410;26;20083;-72
2024/04/17 08:33:58;;;;;;;20.60;4.53;;;;;;;23.92;100.00;98883.09;5418591;26;20003;-69
2024/04/17 08:36:23;;;;;;;24.13;4.95;;;;;;;23.90;100.00;98934.38;5422720;26;20014;-70
2024/04/17 08:38:51;;;;;;;20.30;4.78;;;;;;;23.83;100.00;98866.66;5430554;26;20003;-69
2024/04/17 08:41:18;;;;;;;15.18;4.35;;;;;;;23.66;100.00;98924.66;5416737;26;20465;-70
2024/04/17 08:43:47;;;;;;;17.38;4.80;;;;;;;23.93;100.00;98942.69;5433957;26;20044;-70
2024/04/17 08:46:15;;;;;;;14.02;4.30;;;;;;;23.84;100.00;98953.16;5425034;26;20013;-69
2024/04/17 08:48:41;;;;;;;24.63;4.72;;;;;;;23.41;100.00;98877.91;5430718;26;20017;-75
2024/04/17 08:51:10;;;;;;;21.48;5.70;;;;;;;24.41;100.00;98923.97;5420608;26;20088;-70
2024/04/17 08:53:37;;;;;;;22.65;4.78;;;;;;;24.76;100.00;98928.22;5432104;26;19999;-69
2024/04/17 08:56:04;;;;;;;33.00;4.90;;;;;;;24.00;100.00;98890.94;5428769;26;20003;-69
2024/04/17 08:58:29;;;;;;;20.90;4.45;;;;;;;24.99;100.00;98929.22;5430530;26;19999;-70
2024/04/17 09:00:55;;;;;;;19.70;4.65;;;;;;;24.76;100.00;98865.78;5434529;26;20387;-69
2024/04/17 09:03:25;;;;;;;20.10;4.25;;;;;;;24.46;100.00;98871.53;5436649;26;20002;-69
2024/04/17 09:05:52;;;;;;;28.70;4.53;;;;;;;24.63;100.00;98873.19;5426039;26;20009;-70
2024/04/17 09:08:19;;;;;;;24.48;4.45;;;;;;;24.41;100.00;98923.97;5424773;26;20015;-70
2024/04/17 09:10:45;;;;;;;18.30;4.45;;;;;;;24.86;100.00;98947.88;5429447;26;20003;-69
2024/04/17 09:13:12;;;;;;;30.60;4.75;;;;;;;25.23;100.00;98926.66;5425318;26;20003;-69
2024/04/17 09:15:38;;;;;;;23.42;4.47;;;;;;;25.30;100.00;98958.03;5428858;26;20035;-69
2024/04/17 09:18:10;;;;;;;19.33;4.40;;;;;;;25.15;100.00;98931.03;5422589;26;20003;-71
2024/04/17 09:20:36;;;;;;;26.95;4.97;;;;;;;25.50;100.00;98887.31;5438991;26;20014;-70
2024/04/17 09:23:02;;;;;;;20.10;4.22;;;;;;;25.31;100.00;98845.16;5045591;26;9999743;-69
2024/04/17 09:25:28;;;;;;;23.50;3.80;;;;;;;24.96;100.00;98902.72;5415060;26;20018;-69
2024/04/17 09:27:54;;;;;;;16.63;3.63;;;;;;;24.90;100.00;98883.34;5420751;26;20016;-70
2024/04/17 09:30:19;;;;;;;18.00;4.13;;;;;;;25.44;100.00;98885.38;5430842;26;20003;-72
2024/04/17 09:32:46;;;;;;;26.95;4.35;;;;;;;25.81;100.00;98928.31;5426212;26;20475;-72
2024/04/17 09:35:12;;;;;;;20.60;4.45;;;;;;;25.35;100.00;98868.09;5427021;26;20824;-70
2024/04/17 09:37:38;;;;;;;20.33;3.88;;;;;;;25.23;100.00;98879.81;5415712;26;20095;-72
2024/04/17 09:40:09;;;;;;;17.10;3.58;;;;;;;25.55;100.00;98938.91;5432281;26;20040;-70
2024/04/17 09:42:35;;;;;;;15.45;3.30;;;;;;;25.59;100.00;98948.81;5427948;26;20003;-72
2024/04/17 09:45:02;;;;;;;18.85;3.78;;;;;;;25.30;100.00;98867.78;5425159;26;19995;-72
2024/04/17 09:47:31;;;;;;;17.60;3.63;;;;;;;25.94;100.00;98908.56;5417843;26;20003;-69
2024/04/17 09:50:02;;;;;;;12.43;3.63;;;;;;;25.59;100.00;98882.94;5426262;26;19999;-70
2024/04/17 09:52:28;;;;;;;20.67;4.18;;;;;;;25.60;100.00;98953.06;5419766;26;20018;-70
2024/04/17 09:54:56;;;;;;;18.15;4.07;;;;;;;25.83;100.00;98903.69;5426674;26;20014;-69
2024/04/17 09:57:22;;;;;;;12.50;3.38;;;;;;;25.49;100.00;98963.00;5428011;26;20043;-70
2024/04/17 09:59:49;;;;;;;13.55;3.33;;;;;;;25.17;100.00;98936.91;5429648;26;20006;-72
2024/04/17 10:02:16;;;;;;;18.23;3.85;;;;;;;25.54;100.00;98924.25;5436506;26;20002;-69
2024/04/17 10:04:42;;;;;;;16.13;3.30;;;;;;;25.61;100.00;98946.06;5433790;26;20338;-70
2024/04/17 10:07:11;;;;;;;20.55;4.22;;;;;;;25.98;100.00;98927.28;5436280;26;19999;-70
2024/04/17 10:09:39;;;;;;;18.20;3.90;;;;;;;25.58;100.00;98960.22;5427440;26;20000;-71
2024/04/17 10:12:07;;;;;;;11.70;3.67;;;;;;;25.64;100.00;98899.69;5423605;26;19999;-71
2024/04/17 10:14:33;;;;;;;13.13;3.45;;;;;;;26.13;100.00;98908.22;5427908;26;20060;-69
2024/04/17 10:16:59;;;;;;;15.50;3.75;;;;;;;26.41;100.00;98885.97;5429011;26;20468;-70
2024/04/17 10:19:24;;;;;;;14.85;3.53;;;;;;;25.94;100.00;98903.38;5431097;26;20004;-69
2024/04/17 10:21:53;;;;;;;13.93;3.40;;;;;;;25.36;100.00;98855.88;5430240;26;20359;-71
2024/04/17 10:24:19;;;;;;;12.95;3.85;;;;;;;25.53;100.00;98867.97;5427869;26;20047;-70
2024/04/17 10:26:49;;;;;;;11.15;3.72;;;;;;;26.22;100.00;98864.72;5429406;26;20000;-70
2024/04/17 10:29:15;;;;;;;19.33;4.43;;;;;;;26.35;100.00;98878.81;5430027;26;19998;-70
2024/04/17 10:31:40;;;;;;;22.90;4.68;;;;;;;26.44;100.00;98874.38;5424874;26;20162;-69
2024/04/17 10:34:06;;;;;;;26.15;4.05;;;;;;;25.73;100.00;98811.94;5436210;26;20002;-69
2024/04/17 10:36:33;;;;;;;14.00;3.70;;;;;;;26.49;100.00;98888.53;5427131;26;20076;-69
2024/04/17 10:38:59;;;;;;;14.55;3.97;;;;;;;26.42;100.00;98793.72;5429211;26;20430;-69
2024/04/17 10:41:28;;;;;;;16.40;4.75;;;;;;;26.71;100.00;98826.97;5433903;26;19999;-69
2024/04/17 10:43:57;;;;;;;14.80;5.00;;;;;;;26.96;100.00;98797.09;5427155;26;20014;-70
2024/04/17 10:46:23;;;;;;;18.08;4.20;;;;;;;26.45;100.00;98832.50;5434955;26;20003;-70
2024/04/17 10:48:51;;;;;;;15.55;4.13;;;;;;;25.84;100.00;98805.53;5423373;26;20031;-70
2024/04/17 10:51:18;;;;;;;11.85;3.47;;;;;;;25.92;100.00;98891.47;5438485;26;20074;-69
2024/04/17 10:53:46;;;;;;;22.20;3.80;;;;;;;26.02;100.00;98775.66;5428100;26;20007;-69
2024/04/17 10:56:17;;;;;;;17.05;3.83;;;;;;;26.29;100.00;98843.00;5427691;26;20346;-69
2024/04/17 10:58:43;;;;;;;20.40;4.22;;;;;;;26.33;100.00;98781.72;5412752;26;20022;-69
2024/04/17 11:01:12;;;;;;;25.63;4.53;;;;;;;25.94;100.00;98772.28;5428694;26;19999;-70
2024/04/17 11:03:38;;;;;;;16.95;4.03;;;;;;;26.31;100.00;98824.56;5429925;26;20021;-69
2024/04/17 11:06:06;;;;;;;17.90;3.90;;;;;;;26.26;100.00;98843.34;5428820;26;20448;-69
2024/04/17 11:08:38;;;;;;;15.93;4.25;;;;;;;26.16;100.00;98779.38;5431293;26;20107;-70
2024/04/17 11:11:03;;;;;;;;;;;;;;;26.43;100.00;98815.38;5423645;26;20018;-69